Time;durP1;ratioP1;P1;durP2;ratioP2;P2;SDS_P1;SDS_P2;PMS_P1;PMS_P2;Temp;Humidity;BMP_temperature;BMP_pressure;BME280_temperature;BME280_humidity;BME280_pressure;Samples;Min_cycle;Max_cycle;Signal;HPM_P1;HPM_P2
2023/03/27 00:01:32;;;;;;;1.07;0.80;;;;;;;10.90;59.93;96609.16;8381704;28;20240;-72
2023/03/27 00:05:35;;;;;;;1.43;1.10;;;;;;;11.21;59.12;96612.28;8381546;28;20429;-72
2023/03/27 00:09:43;;;;;;;2.00;0.83;;;;;;;10.88;59.98;96604.09;8381567;28;20259;-72
2023/03/27 00:13:45;;;;;;;0.70;0.70;;;;;;;11.05;59.54;96613.31;8381095;28;20457;-69
2023/03/27 00:17:54;;;;;;;0.87;0.70;;;;;;;11.13;59.26;96607.59;8381213;28;20233;-70
2023/03/27 00:21:56;;;;;;;0.70;0.70;;;;;;;11.15;59.58;96610.91;8380606;28;20296;-70
2023/03/27 00:25:59;;;;;;;0.70;0.70;;;;;;;11.11;59.78;96612.06;8379872;28;20241;-70
2023/03/27 00:30:05;;;;;;;1.17;0.80;;;;;;;11.04;59.77;96608.22;8381068;28;20542;-70
2023/03/27 00:34:10;;;;;;;0.80;0.80;;;;;;;10.45;61.38;96555.19;8380539;28;20232;-70
2023/03/27 00:38:14;;;;;;;1.53;0.70;;;;;;;10.72;61.33;96619.00;8380464;28;20233;-70
2023/03/27 00:42:21;;;;;;;1.33;0.50;;;;;;;10.09;63.25;96636.81;8380179;28;20225;-71
2023/03/27 00:46:30;;;;;;;0.57;0.50;;;;;;;9.76;63.85;96637.16;8380407;28;20422;-71
2023/03/27 00:50:38;;;;;;;0.60;0.60;;;;;;;10.12;62.89;96628.84;8380244;28;20253;-71
2023/03/27 00:54:41;;;;;;;1.03;0.33;;;;;;;9.49;63.57;96634.53;8379896;28;20230;-71
2023/03/27 00:58:47;;;;;;;0.50;0.30;;;;;;;9.83;62.87;96638.47;8379558;28;20296;-70
2023/03/27 01:02:50;;;;;;;0.20;0.20;;;;;;;9.84;63.01;96641.88;8379661;28;20230;-72
2023/03/27 01:06:56;;;;;;;0.50;0.30;;;;;;;9.91;63.13;96653.50;8379653;28;20432;-70
2023/03/27 01:11:07;;;;;;;0.20;0.20;;;;;;;9.58;63.45;96658.06;8379830;28;20230;-70
2023/03/27 01:15:22;;;;;;;1.13;0.23;;;;;;;9.57;63.63;96661.56;8379372;28;20522;-71
2023/03/27 01:20:02;;;;;;;0.00;0.00;;;;;;;9.65;63.11;96670.59;8379664;28;20230;-71
2023/03/27 01:24:27;;;;;;;0.23;0.20;;;;;;;9.52;62.91;96676.53;8355936;28;20227;-71
2023/03/27 01:28:42;;;;;;;0.43;0.10;;;;;;;9.68;62.67;96680.78;8379618;28;20240;-71
2023/03/27 01:33:20;;;;;;;0.47;0.20;;;;;;;9.36;63.03;96693.88;8379101;28;20230;-70
2023/03/27 01:37:32;;;;;;;0.10;0.10;;;;;;;9.52;63.24;96699.81;8378559;28;20223;-70
2023/03/27 01:41:41;;;;;;;0.37;0.20;;;;;;;9.03;64.46;96710.44;8379320;28;20399;-71
2023/03/27 01:45:46;;;;;;;0.20;0.20;;;;;;;9.44;63.25;96716.66;8378830;28;20233;-70
2023/03/27 01:49:52;;;;;;;0.20;0.20;;;;;;;9.13;63.43;96728.81;8379295;28;20238;-71
2023/03/27 01:53:58;;;;;;;0.30;0.30;;;;;;;9.42;62.41;96741.78;8378916;28;20233;-71
2023/03/27 01:58:06;;;;;;;0.20;0.20;;;;;;;9.14;63.21;96753.75;8378862;28;20240;-71
2023/03/27 02:02:12;;;;;;;0.33;0.10;;;;;;;9.46;63.04;96759.59;8379081;28;20241;-70
2023/03/27 02:06:17;;;;;;;0.30;0.20;;;;;;;9.65;61.60;96774.00;8378798;28;20233;-71
2023/03/27 02:10:23;;;;;;;0.40;0.20;;;;;;;9.10;61.35;96778.06;8378592;28;20224;-70
2023/03/27 02:14:30;;;;;;;0.13;0.13;;;;;;;9.43;60.86;96784.81;8378707;28;20245;-70
2023/03/27 02:18:35;;;;;;;0.20;0.10;;;;;;;9.46;61.35;96792.34;8378851;28;20424;-71
2023/03/27 02:22:38;;;;;;;0.03;0.03;;;;;;;8.60;63.68;96809.22;8378293;28;20370;-70
2023/03/27 02:26:41;;;;;;;0.00;0.00;;;;;;;8.63;62.81;96820.31;8378153;28;20232;-70
2023/03/27 02:30:53;;;;;;;0.37;0.20;;;;;;;8.41;63.51;96831.72;8378363;28;20279;-69
2023/03/27 02:35:23;;;;;;;0.30;0.10;;;;;;;8.71;60.94;96847.34;8378337;28;20270;-70
2023/03/27 02:39:32;;;;;;;0.20;0.20;;;;;;;8.54;62.19;96865.50;8378140;28;20228;-70
2023/03/27 02:43:38;;;;;;;0.83;0.20;;;;;;;8.87;61.45;96864.56;8378091;28;20225;-70
2023/03/27 02:47:46;;;;;;;0.20;0.20;;;;;;;8.52;62.23;96875.88;8379172;28;20425;-70
2023/03/27 02:51:51;;;;;;;0.20;0.20;;;;;;;8.58;62.06;96891.03;8383579;28;20229;-70
2023/03/27 02:55:56;;;;;;;0.30;0.30;;;;;;;8.56;62.27;96903.19;8383893;28;20244;-70
2023/03/27 03:00:05;;;;;;;0.30;0.30;;;;;;;8.25;62.36;96896.22;8383471;28;20224;-70
2023/03/27 03:04:11;;;;;;;0.70;0.70;;;;;;;8.25;62.25;96916.03;8383816;28;20217;-70
2023/03/27 03:08:13;;;;;;;0.60;0.60;;;;;;;8.68;60.90;96931.84;8383491;28;20225;-70
2023/03/27 03:12:17;;;;;;;1.00;0.90;;;;;;;8.74;61.40;96941.88;8383429;28;20221;-70
2023/03/27 03:16:20;;;;;;;1.77;1.20;;;;;;;8.53;61.36;96954.13;8383441;28;20229;-70
2023/03/27 03:20:28;;;;;;;2.60;1.53;;;;;;;8.55;61.40;96957.50;8383336;28;20232;-70
2023/03/27 03:24:31;;;;;;;4.83;1.80;;;;;;;8.52;61.33;96976.53;8383178;28;20241;-71
2023/03/27 03:28:34;;;;;;;3.13;1.70;;;;;;;8.57;61.57;96986.63;8382928;28;20294;-71
2023/03/27 03:32:38;;;;;;;3.30;1.90;;;;;;;8.45;61.57;96985.50;8382764;28;20231;-71
2023/03/27 03:36:43;;;;;;;6.37;2.30;;;;;;;8.47;62.18;96996.56;8382593;28;20496;-70
2023/03/27 03:40:46;;;;;;;5.93;2.57;;;;;;;8.35;61.08;97003.16;8382218;28;20354;-70
2023/03/27 03:44:49;;;;;;;5.70;2.97;;;;;;;7.98;62.43;97022.22;8382588;28;20405;-71
2023/03/27 03:48:52;;;;;;;7.63;2.83;;;;;;;8.39;60.97;97029.63;8382273;28;20453;-70
2023/03/27 03:52:56;;;;;;;5.37;2.70;;;;;;;8.25;61.26;97048.38;8382059;28;20225;-71
2023/03/27 03:56:58;;;;;;;7.90;3.00;;;;;;;8.10;61.29;97070.59;8381850;28;20256;-71
2023/03/27 04:01:02;;;;;;;5.33;3.10;;;;;;;7.77;61.72;97084.22;8381811;28;20416;-71
2023/03/27 04:05:06;;;;;;;5.83;2.57;;;;;;;7.95;61.21;97089.41;8381717;28;20225;-71
2023/03/27 04:09:12;;;;;;;6.17;3.03;;;;;;;7.82;61.29;97102.88;8381729;28;20232;-70
2023/03/27 04:13:15;;;;;;;7.10;2.90;;;;;;;8.11;60.79;97115.28;8381484;28;20251;-71
2023/03/27 04:17:18;;;;;;;5.73;2.60;;;;;;;7.89;60.81;97124.03;8381129;28;20231;-71
2023/03/27 04:21:25;;;;;;;6.63;2.67;;;;;;;7.70;61.77;97123.22;8381360;28;20227;-71
2023/03/27 04:25:29;;;;;;;6.20;2.60;;;;;;;7.90;61.18;97148.91;8380952;28;20240;-71
2023/03/27 04:29:33;;;;;;;6.73;2.80;;;;;;;7.69;61.42;97145.59;8381129;28;20240;-71
2023/03/27 04:33:38;;;;;;;5.43;2.60;;;;;;;7.96;60.67;97164.09;8380784;28;20229;-71
2023/03/27 04:37:41;;;;;;;6.77;2.50;;;;;;;7.93;60.13;97159.06;8380333;28;20232;-71
2023/03/27 04:41:48;;;;;;;8.03;2.90;;;;;;;7.41;61.39;97175.16;8379853;28;20555;-71
2023/03/27 04:45:52;;;;;;;10.43;3.13;;;;;;;7.71;60.42;97185.00;8380379;28;20430;-70
2023/03/27 04:49:57;;;;;;;9.17;3.03;;;;;;;7.55;59.83;97202.88;8380267;28;20399;-70
2023/03/27 04:54:03;;;;;;;6.67;2.73;;;;;;;7.45;59.75;97206.78;8380459;28;20228;-70
2023/03/27 04:58:07;;;;;;;8.73;2.93;;;;;;;7.39;60.31;97225.09;8380156;28;20225;-70
2023/03/27 05:02:11;;;;;;;8.70;3.20;;;;;;;7.42;60.25;97238.69;8380170;28;20245;-70
2023/03/27 05:06:14;;;;;;;7.20;3.13;;;;;;;7.97;59.03;97244.84;8380160;28;20505;-71
2023/03/27 05:10:17;;;;;;;8.53;3.40;;;;;;;7.52;59.14;97254.56;8379428;28;20227;-71
2023/03/27 05:14:25;;;;;;;10.07;3.13;;;;;;;7.61;58.48;97264.44;8379824;28;20414;-70
2023/03/27 05:18:29;;;;;;;11.57;3.70;;;;;;;7.68;58.70;97267.63;8379275;28;20248;-71
2023/03/27 05:22:32;;;;;;;12.33;3.47;;;;;;;7.94;57.83;97274.19;8379299;28;20228;-70
2023/03/27 05:26:35;;;;;;;11.30;3.40;;;;;;;7.53;58.19;97291.47;8379463;28;20532;-71
2023/03/27 05:30:42;;;;;;;9.23;3.40;;;;;;;7.76;58.42;97299.03;8379542;28;20284;-71
2023/03/27 05:34:44;;;;;;;7.07;2.93;;;;;;;7.82;57.14;97311.69;8378775;28;20533;-70
2023/03/27 05:38:47;;;;;;;8.33;3.27;;;;;;;7.89;57.63;97319.13;8379191;28;20376;-70
2023/03/27 05:42:51;;;;;;;7.50;2.70;;;;;;;8.05;57.03;97333.00;8379267;28;20511;-70
2023/03/27 05:46:55;;;;;;;7.77;2.60;;;;;;;7.83;57.83;97341.69;8378982;28;20232;-71
2023/03/27 05:50:58;;;;;;;8.70;2.90;;;;;;;7.67;57.64;97370.75;8378858;28;20237;-70
2023/03/27 05:55:00;;;;;;;7.53;2.77;;;;;;;7.29;58.71;97381.78;8378622;28;20229;-71
2023/03/27 05:59:03;;;;;;;8.97;2.90;;;;;;;7.98;56.64;97378.03;8378781;28;20221;-70
2023/03/27 06:03:08;;;;;;;5.40;2.70;;;;;;;7.67;56.58;97399.94;8378556;28;20225;-70
2023/03/27 06:07:11;;;;;;;7.33;3.10;;;;;;;7.74;56.78;97409.09;8378862;28;20402;-71
2023/03/27 06:11:15;;;;;;;7.00;3.43;;;;;;;7.64;56.57;97424.13;8378434;28;20516;-70
2023/03/27 06:15:19;;;;;;;7.27;2.73;;;;;;;7.71;56.71;97436.75;8378614;28;20408;-70
2023/03/27 06:19:23;;;;;;;6.00;2.50;;;;;;;7.68;56.57;97442.03;8378526;28;20559;-70
2023/03/27 06:23:26;;;;;;;5.27;2.50;;;;;;;7.49;56.40;97454.84;8380594;28;20300;-71
2023/03/27 06:27:30;;;;;;;7.67;3.10;;;;;;;7.11;57.21;97468.31;8384891;28;20235;-71
2023/03/27 06:31:37;;;;;;;7.10;2.50;;;;;;;7.40;56.06;97476.63;8384794;28;20224;-71
2023/03/27 06:35:42;;;;;;;6.97;2.80;;;;;;;7.16;56.07;97480.97;8384256;28;20236;-72
2023/03/27 06:39:56;;;;;;;6.57;2.60;;;;;;;7.55;54.92;97472.63;8384290;28;20231;-72
2023/03/27 06:43:59;;;;;;;5.73;2.50;;;;;;;7.67;54.84;97486.75;8384309;28;20275;-72
2023/03/27 06:48:03;;;;;;;3.73;2.17;;;;;;;7.03;56.53;97504.63;8384055;28;20236;-72
2023/03/27 06:52:24;;;;;;;7.70;2.40;;;;;;;6.97;54.95;97502.31;8384079;28;20232;-70
2023/03/27 06:56:26;;;;;;;5.57;2.20;;;;;;;6.90;55.72;97518.84;8383766;28;20236;-70
2023/03/27 07:00:31;;;;;;;5.70;2.47;;;;;;;7.15;55.17;97517.94;8383903;28;20228;-72
2023/03/27 07:04:33;;;;;;;6.53;2.43;;;;;;;7.06;54.92;97547.44;8383658;28;20466;-71
2023/03/27 07:08:37;;;;;;;4.30;2.00;;;;;;;7.19;54.97;97546.09;8383325;28;20302;-72
2023/03/27 07:12:43;;;;;;;8.10;2.70;;;;;;;7.15;54.08;97560.00;8383408;28;20424;-71
2023/03/27 07:16:46;;;;;;;11.67;3.40;;;;;;;7.28;53.41;97550.06;8382482;28;20240;-71
2023/03/27 07:20:49;;;;;;;7.13;2.10;;;;;;;7.23;53.32;97562.28;8382948;28;20235;-70
2023/03/27 07:24:54;;;;;;;5.47;2.10;;;;;;;7.55;51.95;97580.84;8382798;28;20232;-70
2023/03/27 07:28:59;;;;;;;7.53;1.67;;;;;;;7.01;50.38;97588.00;8382748;28;20233;-70
2023/03/27 07:33:02;;;;;;;4.57;1.33;;;;;;;7.36;48.82;97601.31;8382269;28;20225;-70
2023/03/27 07:37:05;;;;;;;4.00;1.40;;;;;;;8.68;46.32;97615.88;8382850;28;20232;-70
2023/03/27 07:41:10;;;;;;;2.63;1.07;;;;;;;9.81;42.78;97607.41;8382568;28;20232;-71
2023/03/27 07:45:13;;;;;;;3.97;1.43;;;;;;;10.48;40.92;97624.06;8382340;28;20551;-71
2023/03/27 07:49:19;;;;;;;4.93;1.20;;;;;;;9.87;39.68;97635.56;8382214;28;20217;-70
2023/03/27 07:53:42;;;;;;;3.97;1.17;;;;;;;11.00;37.65;97653.44;8382229;28;20528;-71
2023/03/27 07:57:48;;;;;;;2.20;0.80;;;;;;;14.23;62.03;97672.22;8381510;28;20532;-73
2023/03/27 08:02:04;;;;;;;7.67;1.20;;;;;;;13.40;38.13;97671.31;8382103;28;20399;-73
2023/03/27 08:06:08;;;;;;;2.27;0.80;;;;;;;13.55;33.30;97679.97;8381706;28;20259;-72
2023/03/27 08:10:11;;;;;;;2.23;0.90;;;;;;;12.12;34.13;97689.03;8382329;28;20230;-71
2023/03/27 08:14:16;;;;;;;4.43;1.20;;;;;;;13.15;33.32;97690.13;8381813;28;20405;-72
2023/03/27 08:18:18;;;;;;;4.23;1.07;;;;;;;12.61;33.78;97691.50;8381214;28;20234;-71
2023/03/27 08:22:23;;;;;;;3.50;1.10;;;;;;;12.60;34.60;97701.97;8381321;28;20217;-70
2023/03/27 08:26:27;;;;;;;1.63;0.90;;;;;;;11.69;35.21;97687.00;8381315;28;20252;-70
2023/03/27 08:30:31;;;;;;;3.07;1.10;;;;;;;12.31;33.29;97713.06;8381080;28;20426;-72
2023/03/27 08:34:34;;;;;;;2.40;1.10;;;;;;;13.16;32.39;97712.63;8380722;28;20233;-72
2023/03/27 08:38:38;;;;;;;3.40;1.10;;;;;;;13.85;30.59;97737.94;8380978;28;20242;-71
2023/03/27 08:42:44;;;;;;;3.57;0.87;;;;;;;12.88;31.48;97735.84;8381454;28;20228;-72
2023/03/27 08:46:50;;;;;;;2.67;1.20;;;;;;;13.45;31.21;97758.56;8379387;28;20238;-73
2023/03/27 08:50:56;;;;;;;2.47;0.90;;;;;;;12.21;32.60;97768.19;8380130;28;20239;-72
2023/03/27 08:55:01;;;;;;;1.73;1.00;;;;;;;11.53;31.25;97772.53;8380166;28;20263;-72
2023/03/27 08:59:06;;;;;;;2.43;0.80;;;;;;;13.67;29.19;97789.34;8380252;28;20411;-72
2023/03/27 09:03:14;;;;;;;2.87;0.90;;;;;;;13.92;28.79;97774.88;8380335;28;20224;-72
2023/03/27 09:07:22;;;;;;;1.83;0.90;;;;;;;14.26;28.10;97798.84;8380016;28;20229;-72
2023/03/27 09:11:35;;;;;;;3.07;1.30;;;;;;;14.94;28.50;97797.19;8379725;28;20246;-73
2023/03/27 09:15:43;;;;;;;3.63;1.10;;;;;;;13.58;29.98;97804.69;8379915;28;20247;-72
2023/03/27 09:19:49;;;;;;;3.37;1.20;;;;;;;12.96;30.99;97815.97;8378966;28;20258;-72
2023/03/27 09:23:54;;;;;;;3.67;1.07;;;;;;;12.91;31.66;97823.22;8379506;28;20432;-72
2023/03/27 09:27:57;;;;;;;3.03;0.90;;;;;;;13.03;30.34;97829.47;8379497;28;20239;-73
2023/03/27 09:32:00;;;;;;;1.87;0.90;;;;;;;14.88;28.16;97827.09;8380462;28;20303;-73
2023/03/27 09:36:05;;;;;;;2.87;0.87;;;;;;;14.23;28.15;97832.88;8379435;28;20406;-72
2023/03/27 09:40:19;;;;;;;4.67;1.20;;;;;;;13.95;28.74;97837.13;8378893;28;20438;-75
2023/03/27 09:44:25;;;;;;;3.13;1.17;;;;;;;12.56;29.69;97844.16;8379141;28;20547;-73
2023/03/27 09:48:34;;;;;;;2.30;1.00;;;;;;;12.76;30.49;97837.88;8379046;28;20241;-72
2023/03/27 09:52:39;;;;;;;2.40;1.23;;;;;;;12.12;31.23;97852.56;8379079;28;20226;-72
2023/03/27 09:56:45;;;;;;;2.50;1.00;;;;;;;13.77;29.65;97856.47;8379850;28;20251;-72
2023/03/27 10:00:48;;;;;;;3.57;1.13;;;;;;;12.78;29.83;97849.03;8386336;28;20231;-73
2023/03/27 10:04:58;;;;;;;3.93;1.20;;;;;;;11.99;31.50;97852.34;8385158;28;20264;-72
2023/03/27 10:09:13;;;;;;;4.67;1.07;;;;;;;11.34;31.33;97855.59;8385271;28;20236;-74
2023/03/27 10:13:25;;;;;;;2.47;0.80;;;;;;;12.15;31.07;97849.81;8384924;28;20225;-73
2023/03/27 10:17:33;;;;;;;3.10;1.00;;;;;;;12.28;31.13;97866.44;8385117;28;20237;-74
2023/03/27 10:21:40;;;;;;;1.70;0.80;;;;;;;13.52;28.69;97864.84;8383791;28;20709;-73
2023/03/27 10:25:50;;;;;;;2.23;0.90;;;;;;;10.53;32.08;97868.06;8384206;28;20233;-73
2023/03/27 10:29:53;;;;;;;4.03;1.23;;;;;;;11.35;33.01;97844.31;8384887;28;20256;-73
2023/03/27 10:33:56;;;;;;;3.47;1.10;;;;;;;11.60;32.59;97876.81;8384500;28;20225;-73
2023/03/27 10:38:00;;;;;;;1.93;0.83;;;;;;;12.80;32.31;97883.56;8384501;28;20288;-74
2023/03/27 10:42:07;;;;;;;3.57;1.57;;;;;;;13.16;30.79;97889.44;8384247;28;20233;-72
2023/03/27 10:46:12;;;;;;;3.67;1.67;;;;;;;12.37;31.98;97891.06;8384323;28;20221;-72
2023/03/27 10:50:19;;;;;;;2.40;0.90;;;;;;;11.70;32.53;97890.16;8384126;28;20221;-74
2023/03/27 10:54:35;;;;;;;4.43;1.17;;;;;;;10.81;33.62;97913.41;8383836;28;20556;-74
2023/03/27 10:58:44;;;;;;;2.60;0.83;;;;;;;10.08;37.06;97908.00;8383768;28;20236;-74
2023/03/27 11:02:51;;;;;;;3.10;0.80;;;;;;;10.70;37.32;97924.28;8382839;28;20228;-74
2023/03/27 11:06:56;;;;;;;1.87;0.90;;;;;;;12.11;33.33;97918.41;8383448;28;20484;-73
2023/03/27 11:11:03;;;;;;;3.50;0.90;;;;;;;14.29;31.47;97918.44;8382767;28;20552;-73
2023/03/27 11:15:18;;;;;;;3.40;1.07;;;;;;;15.15;30.00;97917.53;8383041;28;20412;-73
2023/03/27 11:19:37;;;;;;;1.73;1.00;;;;;;;14.04;30.52;97911.25;8382998;28;20226;-75
2023/03/27 11:23:42;;;;;;;2.70;1.00;;;;;;;13.29;29.82;97908.63;8382817;28;20248;-73
2023/03/27 11:27:52;;;;;;;3.27;1.10;;;;;;;11.50;31.66;97907.53;8382716;28;20234;-73
2023/03/27 11:32:01;;;;;;;1.33;0.77;;;;;;;11.87;31.83;97915.25;8382496;28;20407;-73
2023/03/27 11:36:18;;;;;;;3.43;1.00;;;;;;;12.71;31.17;97918.66;8382378;28;20224;-72
2023/03/27 11:40:24;;;;;;;3.23;0.90;;;;;;;12.63;30.41;97847.28;8382345;28;20530;-72
2023/03/27 11:44:29;;;;;;;2.87;0.90;;;;;;;11.95;30.96;97918.31;8382322;28;20574;-73
2023/03/27 11:48:47;;;;;;;2.70;0.80;;;;;;;11.08;33.23;97929.44;8382222;28;20442;-73
2023/03/27 11:53:01;;;;;;;2.63;0.90;;;;;;;13.46;30.80;97941.47;8381753;28;20498;-73
2023/03/27 11:57:07;;;;;;;3.13;0.90;;;;;;;12.36;31.19;97928.34;8382031;28;20245;-72
2023/03/27 12:01:14;;;;;;;3.67;1.08;;;;;;;12.48;30.57;97945.03;8380001;28;20409;-73
2023/03/27 12:05:38;;;;;;;3.50;1.00;;;;;;;10.75;35.64;97962.91;8381421;28;20236;-73
2023/03/27 12:09:55;;;;;;;2.50;0.90;;;;;;;11.12;37.43;97977.63;8381598;28;20224;-72
2023/03/27 12:14:19;;;;;;;3.40;1.30;;;;;;;11.74;38.60;97985.06;8381357;28;20229;-73
2023/03/27 12:18:32;;;;;;;2.83;1.00;;;;;;;11.90;38.36;97972.22;8381414;28;20532;-74
2023/03/27 12:22:44;;;;;;;1.83;1.00;;;;;;;13.86;34.85;97978.28;8380764;28;20524;-74
2023/03/27 12:27:08;;;;;;;2.50;0.80;;;;;;;13.66;33.98;97969.81;8380139;28;20252;-73
2023/03/27 12:31:28;;;;;;;3.57;0.80;;;;;;;11.32;35.97;97992.22;8380823;28;20237;-74
2023/03/27 12:35:32;;;;;;;3.60;1.00;;;;;;;10.04;44.25;98019.44;8380742;28;20248;-75
2023/03/27 12:39:44;;;;;;;1.37;0.60;;;;;;;9.28;49.55;98035.34;8380611;28;20244;-74
2023/03/27 12:43:48;;;;;;;2.57;0.50;;;;;;;9.44;50.96;98052.84;8380155;28;20247;-73
2023/03/27 12:48:21;;;;;;;2.03;0.57;;;;;;;9.28;51.04;98044.84;8380174;28;20432;-74
2023/03/27 12:52:24;;;;;;;2.97;1.10;;;;;;;9.90;48.93;98053.63;8379625;28;20751;-75
2023/03/27 12:56:35;;;;;;;1.43;0.77;;;;;;;10.23;47.73;98045.41;8380169;28;20297;-74
2023/03/27 13:00:39;;;;;;;7.03;1.43;;;;;;;10.38;47.00;98049.97;8380027;28;20239;-74
2023/03/27 13:05:08;;;;;;;2.57;0.80;;;;;;;10.41;46.36;98034.28;8379434;28;20238;-73
2023/03/27 13:09:40;;;;;;;2.90;2.17;;;;;;;11.44;45.76;98034.06;8380070;28;20458;-74
2023/03/27 13:14:14;;;;;;;3.80;2.10;;;;;;;12.46;44.21;98014.41;8379460;28;20228;-75
2023/03/27 13:18:35;;;;;;;1.30;0.80;;;;;;;12.78;42.57;97999.75;8379791;28;20224;-73
2023/03/27 13:22:55;;;;;;;2.03;0.80;;;;;;;13.21;40.09;98018.25;8379319;28;20233;-73
2023/03/27 13:27:09;;;;;;;3.37;1.20;;;;;;;13.52;39.41;98024.41;8379143;28;20224;-72
2023/03/27 13:31:15;;;;;;;2.73;1.10;;;;;;;14.28;39.02;98026.19;8378787;28;20229;-74
2023/03/27 13:35:32;;;;;;;2.00;1.00;;;;;;;12.32;39.90;98015.97;8378959;28;20234;-74
2023/03/27 13:39:39;;;;;;;1.73;0.90;;;;;;;12.36;39.77;97958.69;8379240;28;20488;-73
2023/03/27 13:43:42;;;;;;;3.07;1.40;;;;;;;13.91;38.38;98015.28;8378615;28;20237;-74
2023/03/27 13:48:13;;;;;;;2.50;1.07;;;;;;;11.73;39.31;98035.28;8378888;28;20230;-72
2023/03/27 13:52:25;;;;;;;1.03;0.60;;;;;;;10.13;44.88;98029.44;8379288;28;20248;-73
2023/03/27 13:56:37;;;;;;;0.87;0.70;;;;;;;10.05;45.18;98049.56;8378987;28;20237;-72
2023/03/27 14:01:08;;;;;;;0.90;0.70;;;;;;;10.41;46.33;98034.28;8378469;28;20237;-72
2023/03/27 14:05:28;;;;;;;0.47;0.47;;;;;;;12.06;40.89;98030.22;8378630;28;20229;-71
2023/03/27 14:09:40;;;;;;;3.63;0.60;;;;;;;12.95;39.12;98024.84;8378640;28;20225;-72
2023/03/27 14:13:55;;;;;;;2.30;1.13;;;;;;;13.08;35.92;98018.06;8378305;28;20229;-72
2023/03/27 14:18:14;;;;;;;2.17;0.87;;;;;;;12.43;36.05;97976.47;8377936;28;20229;-73
2023/03/27 14:22:21;;;;;;;0.97;0.70;;;;;;;12.98;35.19;98022.06;8378525;28;20232;-73
2023/03/27 14:26:28;;;;;;;2.00;0.90;;;;;;;13.11;32.40;98019.66;8377781;28;20400;-72
2023/03/27 14:30:42;;;;;;;0.97;0.90;;;;;;;12.87;32.80;98021.78;8378165;28;20238;-73
2023/03/27 14:34:52;;;;;;;2.03;0.97;;;;;;;12.85;32.69;98015.84;8377972;28;20280;-72
2023/03/27 14:39:01;;;;;;;1.70;1.00;;;;;;;12.67;32.35;98018.50;8378292;28;20230;-73
2023/03/27 14:43:06;;;;;;;2.00;0.97;;;;;;;12.87;31.89;98016.59;8377672;28;20226;-72
2023/03/27 14:47:13;;;;;;;3.13;1.10;;;;;;;11.98;32.23;98014.22;8383637;28;20224;-72
2023/03/27 14:51:18;;;;;;;3.03;1.47;;;;;;;13.07;31.67;98003.38;8384216;28;20412;-73
2023/03/27 14:55:26;;;;;;;2.37;0.77;;;;;;;11.92;32.23;98014.50;8383921;28;20236;-73
2023/03/27 14:59:33;;;;;;;2.17;0.80;;;;;;;11.14;33.03;98013.84;8383838;28;20237;-73
2023/03/27 15:03:38;;;;;;;1.33;0.97;;;;;;;10.51;34.91;98014.06;8383524;28;20288;-72
2023/03/27 15:07:43;;;;;;;2.67;1.03;;;;;;;10.85;35.00;98020.31;8383181;28;20229;-70
2023/03/27 15:11:49;;;;;;;2.77;1.00;;;;;;;10.41;36.32;98020.50;8383330;28;20232;-72
2023/03/27 15:15:54;;;;;;;1.30;0.80;;;;;;;10.09;37.37;98018.34;8382983;28;20225;-71
2023/03/27 15:20:08;;;;;;;2.33;1.00;;;;;;;11.18;36.92;98024.91;8383249;28;20244;-73
2023/03/27 15:24:15;;;;;;;2.10;0.90;;;;;;;12.46;34.28;98009.22;8382962;28;20236;-74
2023/03/27 15:28:26;;;;;;;2.77;0.90;;;;;;;12.91;38.09;98016.38;8382787;28;20248;-72
2023/03/27 15:32:32;;;;;;;3.83;2.70;;;;;;;13.08;33.54;98015.47;8382396;28;20237;-72
2023/03/27 15:36:37;;;;;;;1.00;0.90;;;;;;;12.67;34.34;98023.69;8382560;28;20229;-72
2023/03/27 15:40:41;;;;;;;2.40;0.83;;;;;;;11.85;36.32;98049.41;8382815;28;20240;-70
2023/03/27 15:44:46;;;;;;;4.40;1.10;;;;;;;11.96;38.26;98062.75;8382167;28;20225;-70
2023/03/27 15:48:54;;;;;;;3.00;1.57;;;;;;;11.07;41.10;98040.94;8382526;28;20437;-71
2023/03/27 15:52:57;;;;;;;2.90;1.60;;;;;;;11.77;41.92;98047.19;8381962;28;20302;-72
2023/03/27 15:57:02;;;;;;;2.40;1.70;;;;;;;11.47;42.74;98046.88;8381869;28;20521;-72
2023/03/27 16:01:17;;;;;;;4.80;2.30;;;;;;;11.60;42.48;98052.34;8382106;28;20387;-72
2023/03/27 16:05:21;;;;;;;5.63;2.70;;;;;;;11.57;42.63;98048.13;8382143;28;20225;-73
2023/03/27 16:09:27;;;;;;;3.40;1.10;;;;;;;10.96;41.25;98059.56;8381895;28;20552;-72
2023/03/27 16:13:35;;;;;;;2.27;1.00;;;;;;;10.73;39.37;98056.22;8381817;28;20568;-72
2023/03/27 16:17:44;;;;;;;3.27;1.93;;;;;;;9.95;38.35;98054.28;8381456;28;20276;-72
2023/03/27 16:21:55;;;;;;;3.33;1.23;;;;;;;9.92;37.14;98052.69;8380935;28;20237;-72
2023/03/27 16:25:58;;;;;;;5.37;1.70;;;;;;;10.29;37.35;98058.91;8380918;28;20437;-72
2023/03/27 16:30:01;;;;;;;2.60;1.37;;;;;;;10.18;37.29;98055.94;8380972;28;20232;-72
2023/03/27 16:34:10;;;;;;;3.20;1.00;;;;;;;10.13;36.35;98050.97;8380571;28;20229;-72
2023/03/27 16:38:16;;;;;;;3.23;1.00;;;;;;;10.01;35.54;98059.22;8380871;28;20231;-72
2023/03/27 16:42:21;;;;;;;2.63;1.10;;;;;;;10.37;36.17;98063.81;8380249;28;20543;-73
2023/03/27 16:46:29;;;;;;;2.47;0.70;;;;;;;9.63;36.33;98060.75;8380349;28;20225;-73
2023/03/27 16:50:34;;;;;;;2.10;1.00;;;;;;;9.74;36.57;98076.69;8380477;28;20233;-73
2023/03/27 16:54:36;;;;;;;1.67;1.00;;;;;;;10.08;36.97;98083.09;8380000;28;20538;-72
2023/03/27 16:58:39;;;;;;;2.70;0.83;;;;;;;9.95;36.98;98099.09;8380004;28;20242;-72
2023/03/27 17:02:43;;;;;;;3.13;1.00;;;;;;;9.99;37.26;98102.41;8379235;28;20237;-71
2023/03/27 17:06:48;;;;;;;2.07;1.00;;;;;;;9.69;37.24;98092.38;8378757;28;20225;-71
2023/03/27 17:10:50;;;;;;;1.87;1.00;;;;;;;9.72;37.93;98110.34;8379407;28;20237;-72
2023/03/27 17:14:53;;;;;;;2.77;1.73;;;;;;;9.74;38.72;98113.72;8379343;28;20234;-72
2023/03/27 17:18:56;;;;;;;2.33;1.40;;;;;;;9.74;38.68;98123.22;8379415;28;20332;-72
2023/03/27 17:23:03;;;;;;;1.80;1.23;;;;;;;9.93;39.19;98126.78;8379288;28;20239;-72
2023/03/27 17:27:07;;;;;;;3.13;1.30;;;;;;;9.74;39.28;98124.06;8379263;28;20532;-73
2023/03/27 17:31:10;;;;;;;2.40;1.00;;;;;;;9.61;39.75;98122.84;8378820;28;20242;-71
2023/03/27 17:35:13;;;;;;;2.00;1.50;;;;;;;9.82;39.69;98135.88;8379252;28;20234;-71
2023/03/27 17:39:17;;;;;;;2.30;1.20;;;;;;;9.69;39.39;98143.25;8378950;28;20234;-71
2023/03/27 17:43:20;;;;;;;2.03;0.80;;;;;;;9.70;39.84;98148.38;8378757;28;20221;-71
2023/03/27 17:47:23;;;;;;;3.33;1.27;;;;;;;9.63;39.86;98162.41;8378839;28;20227;-70
2023/03/27 17:51:25;;;;;;;3.90;1.30;;;;;;;9.86;44.53;98174.50;8378613;28;20245;-70
2023/03/27 17:55:30;;;;;;;2.07;1.37;;;;;;;9.68;40.21;98188.13;8378856;28;20231;-71
2023/03/27 17:59:32;;;;;;;3.40;1.30;;;;;;;9.53;39.98;98190.34;8378568;28;20239;-71
2023/03/27 18:03:36;;;;;;;1.83;1.40;;;;;;;9.64;40.02;98189.13;8377446;28;20230;-71
2023/03/27 18:07:39;;;;;;;2.53;1.37;;;;;;;9.64;40.18;98212.41;8378610;28;20293;-71
2023/03/27 18:11:44;;;;;;;2.10;0.90;;;;;;;8.38;44.03;98235.56;8378323;28;20427;-69
2023/03/27 18:15:47;;;;;;;2.53;1.40;;;;;;;7.31;50.09;98280.72;8378277;28;20225;-69
2023/03/27 18:19:49;;;;;;;4.30;1.40;;;;;;;6.50;55.22;98291.28;8382843;28;20295;-70
2023/03/27 18:23:54;;;;;;;1.63;1.50;;;;;;;7.08;53.84;98240.94;8384708;28;20244;-71
2023/03/27 18:27:59;;;;;;;1.60;1.50;;;;;;;7.31;50.75;98258.41;8384554;28;20249;-70
2023/03/27 18:32:03;;;;;;;1.50;1.40;;;;;;;7.79;49.96;98251.94;8384310;28;20241;-71
2023/03/27 18:36:09;;;;;;;5.23;2.40;;;;;;;11.22;85.64;98260.59;8384313;28;20531;-71
2023/03/27 18:40:15;;;;;;;5.03;1.57;;;;;;;12.56;58.58;98267.59;8384471;28;20248;-71
2023/03/27 18:44:20;;;;;;;4.13;1.10;;;;;;;13.01;48.59;98263.69;8383257;28;20427;-70
2023/03/27 18:48:23;;;;;;;1.23;1.10;;;;;;;10.76;44.18;98265.91;8384041;28;20221;-70
2023/03/27 18:52:26;;;;;;;1.40;1.30;;;;;;;10.35;45.12;98280.50;8384267;28;20245;-69
2023/03/27 18:56:29;;;;;;;1.13;0.87;;;;;;;9.65;45.31;98284.75;8383646;28;20237;-70
2023/03/27 19:00:33;;;;;;;1.87;1.30;;;;;;;9.40;46.47;98292.50;8383464;28;20233;-70
2023/03/27 19:04:36;;;;;;;2.30;1.00;;;;;;;9.52;46.08;98297.28;8383440;28;20236;-70
2023/03/27 19:08:40;;;;;;;1.50;1.40;;;;;;;9.03;46.82;98290.34;8383218;28;20255;-69
2023/03/27 19:12:44;;;;;;;1.50;1.20;;;;;;;8.56;47.10;98299.53;8383201;28;20230;-69
2023/03/27 19:16:48;;;;;;;1.70;1.60;;;;;;;9.18;46.80;98301.00;8383195;28;20530;-69
2023/03/27 19:20:51;;;;;;;1.90;1.20;;;;;;;8.69;47.51;98287.09;8383229;28;20237;-69
2023/03/27 19:24:54;;;;;;;1.70;1.00;;;;;;;8.19;47.98;98300.63;8382806;28;20230;-69
2023/03/27 19:28:57;;;;;;;2.33;1.33;;;;;;;8.22;47.99;98308.28;8382364;28;20548;-70